< < Back
Terminal Aerodrome Forecast


Current Version              Previous Versions:   1  2  3  4  5  6  7  8  9  

Terminal Aerodrome Forecast

758
FTUS44 KMOB 262123 AAB
TAFMOB
TAF AMD
KMOB 262123Z 2621/2718 VRB20G35KT 3SM TSRA SCT015 BKN030CB OVC050
      TEMPO 2621/2623 1/2SM +TSRA BKN005 BKN015CB OVC030
     FM262300 VRB04KT P6SM VCSH SCT030 BKN070
     FM270600 00000KT P6SM FEW250
     FM271200 01002KT 4SM BR SCT250=

Latest METAR

939
SAUS80 KWBC 270300 CCA
MTRMOB
METAR KMOB 270256Z 00000KT 10SM SCT200 22/22 A2999 RMK AO2 SLP153
T02220217 50009


USA.gov is the U.S. government's official web portal to all federal, state and local government web resources and services.